Time;durP1;ratioP1;P1;durP2;ratioP2;P2;SDS_P1;SDS_P2;PMS_P1;PMS_P2;Temp;Humidity;BMP_temperature;BMP_pressure;BME280_temperature;BME280_humidity;BME280_pressure;Samples;Min_cycle;Max_cycle;Signal;HPM_P1;HPM_P2
2022/05/07 00:03:27;;;;;;;7.28;2.65;;;;;;;;;;10364371;28;20022;-73
2022/05/07 00:08:27;;;;;;;7.03;2.90;;;;;;;;;;10362327;28;20033;-73
2022/05/07 00:13:28;;;;;;;17.33;3.87;;;;;;;;;;10362878;28;20057;-70
2022/05/07 00:18:28;;;;;;;6.80;3.10;;;;;;;;;;10364420;28;20017;-70
2022/05/07 00:23:30;;;;;;;7.15;3.78;;;;;;;;;;10362950;28;20026;-70
2022/05/07 00:28:31;;;;;;;6.00;4.10;;;;;;;;;;10364252;28;20018;-74
2022/05/07 00:33:31;;;;;;;4.30;3.03;;;;;;;;;;10362488;28;20405;-72
2022/05/07 00:38:31;;;;;;;7.87;3.33;;;;;;;;;;10379148;28;20038;-75
2022/05/07 00:43:35;;;;;;;10.65;3.45;;;;;;;;;;10378759;28;20026;-73
2022/05/07 00:48:36;;;;;;;14.10;3.63;;;;;;;;;;10363239;28;20029;-72
2022/05/07 00:53:38;;;;;;;7.38;2.90;;;;;;;;;;10363495;28;20391;-71
2022/05/07 00:58:39;;;;;;;6.65;3.40;;;;;;;;;;10361929;28;20017;-71
2022/05/07 01:03:39;;;;;;;5.27;3.03;;;;;;;;;;10363069;28;20030;-71
2022/05/07 01:08:39;;;;;;;5.80;3.15;;;;;;;;;;10361539;28;20261;-73
2022/05/07 01:13:39;;;;;;;5.73;3.30;;;;;;;;;;10362902;28;20139;-72
2022/05/07 01:18:41;;;;;;;3.90;3.28;;;;;;;;;;10369207;28;20136;-71
2022/05/07 01:23:42;;;;;;;6.45;2.72;;;;;;;;;;10391750;28;20021;-72
2022/05/07 01:28:42;;;;;;;8.02;3.42;;;;;;;;;;10374814;28;20026;-73
2022/05/07 01:33:43;;;;;;;10.40;3.60;;;;;;;;;;10391507;28;20044;-69
2022/05/07 01:38:43;;;;;;;6.45;2.90;;;;;;;;;;10374362;28;20119;-73
2022/05/07 01:43:43;;;;;;;10.77;2.93;;;;;;;;;;10391150;28;20026;-74
2022/05/07 01:48:44;;;;;;;11.32;3.00;;;;;;;;;;10390935;28;20129;-69
2022/05/07 01:53:44;;;;;;;4.13;2.63;;;;;;;;;;10374357;28;20375;-74
2022/05/07 01:58:45;;;;;;;5.80;2.90;;;;;;;;;;10374591;28;20026;-70
2022/05/07 02:03:46;;;;;;;3.38;2.53;;;;;;;;;;10374562;28;20029;-70
2022/05/07 02:08:47;;;;;;;8.88;2.85;;;;;;;;;;10375158;28;20026;-70
2022/05/07 02:13:47;;;;;;;10.80;3.22;;;;;;;;;;10374932;28;20123;-70
2022/05/07 02:18:48;;;;;;;7.80;3.10;;;;;;;;;;10374129;28;20017;-73
2022/05/07 02:23:48;;;;;;;9.27;3.35;;;;;;;;;;10373870;28;20018;-71
2022/05/07 02:28:48;;;;;;;5.78;3.20;;;;;;;;;;10376964;28;20025;-71
2022/05/07 02:33:50;;;;;;;7.53;2.90;;;;;;;;;;10422897;28;20497;-72
2022/05/07 02:38:50;;;;;;;9.57;3.03;;;;;;;;;;10389228;28;20060;-72
2022/05/07 02:43:51;;;;;;;8.20;3.65;;;;;;;;;;10406442;28;20497;-73
2022/05/07 02:48:51;;;;;;;5.93;3.50;;;;;;;;;;10422691;28;20014;-72
2022/05/07 02:53:51;;;;;;;6.57;3.22;;;;;;;;;;10422486;28;20124;-73
2022/05/07 02:58:51;;;;;;;8.67;4.07;;;;;;;;;;10408415;28;20013;-74
2022/05/07 03:03:52;;;;;;;4.72;3.13;;;;;;;;;;10388983;28;20015;-72
2022/05/07 03:08:52;;;;;;;6.60;3.40;;;;;;;;;;10405312;28;20472;-72
2022/05/07 03:13:52;;;;;;;10.27;3.27;;;;;;;;;;10402919;28;20032;-69
2022/05/07 03:18:53;;;;;;;7.30;3.78;;;;;;;;;;10389082;28;20023;-71
2022/05/07 03:23:53;;;;;;;6.82;3.88;;;;;;;;;;10388361;28;20026;-71
2022/05/07 03:28:55;;;;;;;12.50;4.28;;;;;;;;;;10421648;28;20599;-74
2022/05/07 03:33:55;;;;;;;11.80;4.20;;;;;;;;;;10389266;28;20028;-71
2022/05/07 03:38:55;;;;;;;5.93;4.23;;;;;;;;;;10388853;28;20037;-71
2022/05/07 03:43:55;;;;;;;6.50;3.22;;;;;;;;;;10388751;28;20346;-71
2022/05/07 03:48:56;;;;;;;10.40;4.70;;;;;;;;;;10388873;28;20025;-72
2022/05/07 03:53:56;;;;;;;8.30;4.10;;;;;;;;;;10421800;28;20108;-72
2022/05/07 03:58:56;;;;;;;9.27;3.35;;;;;;;;;;10388713;28;20693;-73
2022/05/07 04:03:57;;;;;;;7.50;4.05;;;;;;;;;;10388302;28;20029;-72
2022/05/07 04:08:57;;;;;;;10.43;3.53;;;;;;;;;;10388031;28;20124;-75
2022/05/07 04:13:57;;;;;;;8.98;4.18;;;;;;;;;;10405530;28;20037;-72
2022/05/07 04:18:57;;;;;;;10.02;4.25;;;;;;;;;;10420448;28;20124;-71
2022/05/07 04:23:58;;;;;;;9.38;3.90;;;;;;;;;;10405403;28;20037;-74
2022/05/07 04:28:58;;;;;;;13.13;5.43;;;;;;;;;;10387129;28;20052;-71
2022/05/07 04:33:58;;;;;;;5.80;3.15;;;;;;;;;;10419638;28;20025;-73
2022/05/07 04:38:59;;;;;;;8.90;4.63;;;;;;;;;;10386578;28;20049;-70
2022/05/07 04:44:01;;;;;;;6.68;4.15;;;;;;;;;;10386678;28;20268;-72
2022/05/07 04:49:01;;;;;;;7.43;3.70;;;;;;;;;;10386256;28;20036;-70
2022/05/07 04:54:01;;;;;;;7.80;3.92;;;;;;;;;;10385635;28;20029;-71
2022/05/07 04:59:01;;;;;;;8.52;3.28;;;;;;;;;;10403914;28;20036;-72
2022/05/07 05:04:02;;;;;;;9.40;3.70;;;;;;;;;;10419237;28;20036;-70
2022/05/07 05:09:02;;;;;;;12.10;4.27;;;;;;;;;;10418613;28;20025;-76
2022/05/07 05:15:01;;;;;;;10.73;4.22;;;;;;;;;;10384970;28;20052;-73
2022/05/07 05:19:23;;;;;;;6.00;3.65;;;;;;;;;;10403263;28;20030;-72
2022/05/07 05:24:23;;;;;;;7.75;3.42;;;;;;;;;;10385938;28;20021;-71
2022/05/07 05:29:24;;;;;;;10.93;3.30;;;;;;;;;;10403363;28;20503;-72
2022/05/07 05:34:24;;;;;;;12.90;3.88;;;;;;;;;;10401935;28;20033;-76
2022/05/07 05:39:24;;;;;;;5.00;3.60;;;;;;;;;;10401236;28;20045;-72
2022/05/07 05:44:24;;;;;;;8.40;3.30;;;;;;;;;;10384738;28;20758;-72
2022/05/07 05:49:25;;;;;;;8.20;4.03;;;;;;;;;;10383716;28;20029;-72
2022/05/07 05:54:26;;;;;;;7.93;4.18;;;;;;;;;;10402867;28;20550;-75
2022/05/07 05:59:27;;;;;;;8.43;3.92;;;;;;;;;;10417421;28;20021;-72
2022/05/07 06:04:27;;;;;;;9.93;3.78;;;;;;;;;;10385977;28;20025;-71
2022/05/07 06:09:28;;;;;;;8.10;3.50;;;;;;;;;;10423673;28;20409;-71
2022/05/07 06:14:28;;;;;;;5.13;3.40;;;;;;;;;;10408453;28;20284;-72
2022/05/07 06:19:28;;;;;;;10.07;3.47;;;;;;;;;;10408325;28;20028;-71
2022/05/07 06:29:47;;;;;;;12.38;3.40;;;;;;;;;;10408870;28;20041;-73
2022/05/07 06:34:48;;;;;;;5.37;3.23;;;;;;;;;;10408383;28;20025;-74
2022/05/07 06:39:48;;;;;;;10.40;3.28;;;;;;;;;;10387771;28;20068;-75
2022/05/07 06:44:48;;;;;;;4.32;3.25;;;;;;;;;;10423815;28;20644;-73
2022/05/07 06:49:49;;;;;;;5.10;3.30;;;;;;;;;;10403469;28;20604;-73
2022/05/07 06:54:49;;;;;;;8.25;3.00;;;;;;;;;;10407255;28;20025;-73
2022/05/07 06:59:50;;;;;;;5.93;3.30;;;;;;;;;;10408403;28;20018;-69
2022/05/07 07:04:50;;;;;;;4.78;2.60;;;;;;;;;;10390423;28;20102;-73
2022/05/07 07:09:50;;;;;;;4.43;2.65;;;;;;;;;;10407093;28;20021;-72
2022/05/07 07:14:51;;;;;;;6.05;2.40;;;;;;;;;;10405557;28;20532;-72
2022/05/07 07:19:51;;;;;;;8.70;3.33;;;;;;;;;;10409015;28;20627;-69
2022/05/07 07:24:51;;;;;;;9.50;3.08;;;;;;;;;;10406031;28;20030;-69
2022/05/07 07:29:52;;;;;;;7.60;2.67;;;;;;;;;;10406280;28;20119;-69
2022/05/07 07:34:52;;;;;;;6.28;2.42;;;;;;;;;;10389829;28;20033;-69
2022/05/07 07:39:53;;;;;;;5.13;2.50;;;;;;;;;;10406303;28;20128;-68
2022/05/07 07:50:12;;;;;;;3.08;2.05;;;;;;;;;;10407239;28;20041;-69
2022/05/07 07:55:12;;;;;;;4.05;2.80;;;;;;;;;;10388236;28;20492;-68
2022/05/07 08:00:13;;;;;;;6.07;2.75;;;;;;;;;;10388925;28;20026;-70
2022/05/07 08:05:13;;;;;;;2.83;2.20;;;;;;;;;;10388070;28;20382;-71
2022/05/07 08:15:33;;;;;;;5.15;2.55;;;;;;;;;;10404948;28;20100;-70
2022/05/07 08:20:33;;;;;;;4.47;2.30;;;;;;;;;;10387352;28;20481;-69
2022/05/07 08:25:34;;;;;;;6.55;2.80;;;;;;;;;;10386819;28;20071;-69
2022/05/07 08:30:36;;;;;;;5.10;3.08;;;;;;;;;;10404484;28;20029;-70
2022/05/07 08:35:37;;;;;;;5.43;2.50;;;;;;;;;;10404340;28;20025;-69
2022/05/07 08:40:40;;;;;;;8.88;2.70;;;;;;;;;;10404221;28;20061;-74
2022/05/07 08:45:41;;;;;;;4.38;2.70;;;;;;;;;;10386215;28;20033;-69
2022/05/07 08:50:41;;;;;;;3.65;2.55;;;;;;;;;;10404836;28;20051;-70
2022/05/07 08:55:42;;;;;;;4.03;2.43;;;;;;;;;;10386321;28;20032;-69
2022/05/07 09:00:45;;;;;;;6.20;2.40;;;;;;;;;;10419216;28;20087;-69
2022/05/07 09:05:45;;;;;;;3.55;2.03;;;;;;;;;;10386265;28;20029;-69
2022/05/07 09:10:45;;;;;;;9.57;2.17;;;;;;;;;;10385785;28;20033;-70
2022/05/07 09:15:50;;;;;;;9.03;1.87;;;;;;;;;;10403375;28;20148;-69
2022/05/07 09:21:16;;;;;;;4.93;1.95;;;;;;;;;;10385688;28;20385;-71
2022/05/07 09:26:26;;;;;;;5.18;1.77;;;;;;;;;;10383078;28;20663;-70
2022/05/07 09:31:31;;;;;;;4.15;2.25;;;;;;;;;;10385676;28;20501;-69
2022/05/07 09:36:32;;;;;;;4.40;2.30;;;;;;;;;;10385774;28;20071;-71
2022/05/07 09:41:32;;;;;;;5.23;1.60;;;;;;;;;;10392497;28;20379;-69
2022/05/07 09:46:32;;;;;;;3.10;1.77;;;;;;;;;;10426280;28;20485;-69
2022/05/07 09:51:33;;;;;;;5.73;2.67;;;;;;;;;;10393239;28;20408;-69
2022/05/07 10:02:04;;;;;;;3.38;2.13;;;;;;;;;;10411263;28;20874;-69
2022/05/07 10:07:17;;;;;;;2.75;1.80;;;;;;;;;;10392565;28;20484;-69
2022/05/07 10:12:19;;;;;;;5.75;1.80;;;;;;;;;;10392138;28;20113;-69
2022/05/07 10:17:21;;;;;;;4.28;1.80;;;;;;;;;;10408124;28;20127;-69
2022/05/07 10:22:23;;;;;;;4.78;1.60;;;;;;;;;;10425153;28;20488;-69
2022/05/07 10:27:31;;;;;;;5.18;1.83;;;;;;;;;;10407983;28;20100;-69
2022/05/07 10:32:51;;;;;;;3.85;1.60;;;;;;;;;;10391654;28;20017;-69
2022/05/07 10:38:03;;;;;;;4.97;2.05;;;;;;;;;;10391470;28;20020;-70
2022/05/07 10:43:04;;;;;;;5.28;1.45;;;;;;;;;;10326462;28;20050;-69
2022/05/07 10:48:15;;;;;;;4.60;1.40;;;;;;;;;;10327286;28;20031;-69
2022/05/07 10:53:15;;;;;;;4.25;1.75;;;;;;;;;;10325012;28;20281;-74
2022/05/07 10:58:16;;;;;;;3.20;2.08;;;;;;;;;;10326120;28;20023;-70
2022/05/07 11:03:23;;;;;;;3.08;1.50;;;;;;;;;;10325772;28;20030;-69
2022/05/07 11:08:24;;;;;;;4.30;1.67;;;;;;;;;;10326954;28;20073;-69
2022/05/07 11:13:24;;;;;;;5.00;1.60;;;;;;;;;;10326751;28;20117;-73
2022/05/07 11:18:24;;;;;;;2.70;1.60;;;;;;;;;;10325109;28;20294;-74
2022/05/07 11:23:25;;;;;;;4.78;1.55;;;;;;;;;;10326207;28;20039;-69
2022/05/07 11:28:26;;;;;;;2.50;1.52;;;;;;;;;;10324891;28;20137;-69
2022/05/07 11:33:26;;;;;;;3.28;1.60;;;;;;;;;;10324304;28;20022;-70
2022/05/07 11:38:26;;;;;;;4.78;2.10;;;;;;;;;;10330792;28;20037;-69
2022/05/07 11:48:45;;;;;;;3.95;1.88;;;;;;;;;;10407158;28;20027;-73
2022/05/07 11:53:46;;;;;;;4.97;3.22;;;;;;;;;;10388797;28;20029;-73
2022/05/07 11:58:49;;;;;;;7.20;1.33;;;;;;;;;;10405816;28;20028;-69
2022/05/07 12:03:50;;;;;;;4.32;1.88;;;;;;;;;;10388174;28;20029;-70
2022/05/07 12:08:51;;;;;;;11.15;1.90;;;;;;;;;;10404488;28;20048;-69
2022/05/07 12:13:51;;;;;;;5.30;2.00;;;;;;;;;;10405064;28;20033;-70
2022/05/07 12:18:51;;;;;;;7.90;1.27;;;;;;;;;;10405232;28;20434;-69
2022/05/07 12:34:29;;;;;;;5.47;1.65;;;;;;;;;;10404661;28;20465;-69
2022/05/07 12:39:29;;;;;;;5.47;1.77;;;;;;;;;;10411785;28;20049;-69
2022/05/07 12:44:30;;;;;;;4.40;1.90;;;;;;;;;;10419853;28;20029;-73
2022/05/07 12:49:31;;;;;;;5.93;1.88;;;;;;;;;;10419647;28;20025;-68
2022/05/07 12:54:31;;;;;;;6.93;2.10;;;;;;;;;;10419421;28;20021;-74
2022/05/07 12:59:31;;;;;;;2.67;1.90;;;;;;;;;;10419430;28;20325;-73
2022/05/07 13:04:32;;;;;;;4.40;2.03;;;;;;;;;;10386193;28;20413;-70
2022/05/07 13:09:32;;;;;;;7.35;2.53;;;;;;;;;;10386601;28;20021;-72
2022/05/07 13:14:35;;;;;;;6.28;2.58;;;;;;;;;;10385015;28;20546;-69
2022/05/07 13:19:36;;;;;;;3.67;2.08;;;;;;;;;;10385971;28;20147;-72
2022/05/07 13:24:36;;;;;;;5.13;2.47;;;;;;;;;;10385705;28;20026;-69
2022/05/07 13:29:36;;;;;;;4.70;2.20;;;;;;;;;;10418790;28;20017;-67
2022/05/07 13:34:37;;;;;;;9.27;2.60;;;;;;;;;;10403123;28;20108;-72
2022/05/07 13:39:37;;;;;;;4.38;2.58;;;;;;;;;;10384878;28;20053;-73
2022/05/07 13:44:37;;;;;;;4.35;1.88;;;;;;;;;;10385536;28;20030;-70
2022/05/07 13:49:39;;;;;;;2.70;2.33;;;;;;;;;;10402331;28;20032;-73
2022/05/07 13:54:39;;;;;;;3.58;1.88;;;;;;;;;;10416042;28;20116;-71
2022/05/07 13:59:39;;;;;;;6.70;2.20;;;;;;;;;;10401457;28;20390;-73
2022/05/07 14:04:40;;;;;;;4.93;2.10;;;;;;;;;;10402606;28;20014;-75
2022/05/07 14:09:47;;;;;;;7.50;2.67;;;;;;;;;;10418627;28;20041;-74
2022/05/07 14:14:47;;;;;;;6.65;2.13;;;;;;;;;;10385256;28;20032;-76
2022/05/07 14:19:49;;;;;;;8.95;2.30;;;;;;;;;;10417375;28;20025;-71
2022/05/07 14:24:50;;;;;;;9.68;2.22;;;;;;;;;;10385450;28;20041;-72
2022/05/07 14:29:51;;;;;;;6.55;1.90;;;;;;;;;;10391759;28;20041;-77
2022/05/07 14:34:51;;;;;;;3.25;2.00;;;;;;;;;;10424487;28;20037;-71
2022/05/07 14:39:51;;;;;;;5.95;2.10;;;;;;;;;;10397883;28;20049;-76
2022/05/07 14:44:52;;;;;;;5.45;2.30;;;;;;;;;;10421155;28;20029;-74
2022/05/07 14:49:52;;;;;;;3.58;2.30;;;;;;;;;;10381204;28;20033;-75
2022/05/07 14:54:54;;;;;;;8.70;2.75;;;;;;;;;;10428390;28;20056;-73
2022/05/07 14:59:54;;;;;;;10.40;2.78;;;;;;;;;;10423222;28;20036;-73
2022/05/07 15:04:54;;;;;;;5.40;2.90;;;;;;;;;;10401785;28;20519;-73
2022/05/07 15:15:13;;;;;;;6.05;4.22;;;;;;;;;;10383383;28;20033;-73
2022/05/07 15:20:16;;;;;;;3.75;1.83;;;;;;;;;;10384073;28;20025;-71
2022/05/07 15:25:18;;;;;;;9.88;2.70;;;;;;;;;;10389750;28;20037;-74
2022/05/07 15:30:19;;;;;;;3.92;1.98;;;;;;;;;;10383215;28;20120;-75
2022/05/07 15:40:38;;;;;;;15.52;2.70;;;;;;;;;;10392075;28;20073;-74
2022/05/07 15:45:38;;;;;;;3.40;2.75;;;;;;;;;;10392338;28;20120;-74
2022/05/07 15:50:39;;;;;;;4.95;2.38;;;;;;;;;;10401096;28;20025;-72
2022/05/07 15:55:39;;;;;;;5.10;2.63;;;;;;;;;;10400876;28;20516;-73
2022/05/07 16:00:39;;;;;;;4.53;2.60;;;;;;;;;;10388278;28;20161;-71
2022/05/07 16:05:40;;;;;;;9.60;3.00;;;;;;;;;;10398204;28;20476;-72
2022/05/07 16:10:42;;;;;;;5.25;2.90;;;;;;;;;;10365408;28;20460;-71
2022/05/07 16:15:43;;;;;;;10.85;4.03;;;;;;;;;;10391129;28;20032;-72
2022/05/07 16:20:44;;;;;;;6.68;3.78;;;;;;;;;;10412916;28;20017;-71
2022/05/07 16:25:45;;;;;;;7.15;3.60;;;;;;;;;;10380728;28;20497;-73
2022/05/07 16:30:45;;;;;;;6.88;3.78;;;;;;;;;;10391119;28;20035;-73
2022/05/07 16:35:45;;;;;;;6.33;3.90;;;;;;;;;;10384933;28;20325;-70
2022/05/07 16:40:45;;;;;;;5.85;3.95;;;;;;;;;;10350066;28;20048;-74
2022/05/07 16:45:46;;;;;;;10.03;4.07;;;;;;;;;;10384467;28;20033;-76
2022/05/07 16:50:46;;;;;;;8.38;4.38;;;;;;;;;;10370901;28;20026;-77
2022/05/07 16:55:46;;;;;;;6.78;3.70;;;;;;;;;;10401196;28;20031;-71
2022/05/07 17:00:47;;;;;;;11.25;4.70;;;;;;;;;;10384836;28;20026;-78
2022/05/07 17:05:47;;;;;;;10.27;4.70;;;;;;;;;;10385255;28;20088;-75
2022/05/07 17:10:47;;;;;;;5.80;4.80;;;;;;;;;;10373549;28;20381;-73
2022/05/07 17:15:49;;;;;;;10.43;5.07;;;;;;;;;;10381728;28;20441;-74
2022/05/07 17:20:50;;;;;;;8.32;5.28;;;;;;;;;;10363839;28;20060;-74
2022/05/07 17:25:51;;;;;;;11.52;6.75;;;;;;;;;;10381346;28;20028;-77
2022/05/07 17:30:51;;;;;;;8.40;5.47;;;;;;;;;;10398628;28;20390;-80
2022/05/07 17:35:51;;;;;;;9.40;7.20;;;;;;;;;;10424834;28;20415;-75
2022/05/07 17:40:53;;;;;;;8.05;6.35;;;;;;;;;;10424741;28;20056;-76
2022/05/07 17:45:53;;;;;;;9.00;5.90;;;;;;;;;;10425393;28;20037;-76
2022/05/07 17:50:53;;;;;;;13.32;6.47;;;;;;;;;;10424288;28;20021;-72
2022/05/07 17:55:54;;;;;;;13.82;6.10;;;;;;;;;;10458112;28;20025;-75
2022/05/07 18:00:54;;;;;;;15.37;6.90;;;;;;;;;;10429231;28;20108;-75
2022/05/07 18:05:58;;;;;;;12.10;6.57;;;;;;;;;;10432140;28;20032;-77
2022/05/07 18:10:59;;;;;;;11.88;7.00;;;;;;;;;;10432964;28;20057;-70
2022/05/07 18:15:59;;;;;;;11.98;7.22;;;;;;;;;;10427323;28;20116;-75
2022/05/07 18:20:59;;;;;;;6.53;5.80;;;;;;;;;;10390843;28;20030;-75
2022/05/07 18:25:59;;;;;;;14.87;6.17;;;;;;;;;;10409300;28;20044;-77
2022/05/07 18:31:00;;;;;;;10.10;5.80;;;;;;;;;;10423429;28;20021;-71
2022/05/07 18:46:38;;;;;;;10.45;5.18;;;;;;;;;;10408007;28;20041;-75
2022/05/07 18:51:38;;;;;;;8.93;4.53;;;;;;;;;;10389719;28;20033;-74
2022/05/07 19:01:57;;;;;;;9.00;4.38;;;;;;;;;;10449197;28;20467;-74
2022/05/07 19:06:59;;;;;;;10.10;4.70;;;;;;;;;;10430667;28;20033;-76
2022/05/07 19:12:00;;;;;;;8.75;5.45;;;;;;;;;;10462311;28;20278;-72
2022/05/07 19:17:01;;;;;;;11.65;5.70;;;;;;;;;;10429850;28;20484;-70
2022/05/07 19:22:01;;;;;;;6.57;5.03;;;;;;;;;;10447818;28;20024;-69
2022/05/07 19:27:01;;;;;;;10.40;4.65;;;;;;;;;;10462637;28;20417;-70
2022/05/07 19:32:01;;;;;;;6.73;4.30;;;;;;;;;;10463356;28;20715;-71
2022/05/07 19:37:02;;;;;;;8.70;4.93;;;;;;;;;;10407985;28;20060;-75
2022/05/07 19:42:02;;;;;;;10.53;4.80;;;;;;;;;;10387574;28;20149;-75
2022/05/07 19:47:02;;;;;;;11.37;5.20;;;;;;;;;;10377210;28;20458;-70
2022/05/07 19:52:03;;;;;;;6.45;4.30;;;;;;;;;;10364832;28;20307;-71
2022/05/07 19:57:06;;;;;;;9.43;4.25;;;;;;;;;;10384732;28;20447;-76
2022/05/07 20:02:06;;;;;;;7.38;4.03;;;;;;;;;;10385212;28;20056;-77
2022/05/07 20:07:11;;;;;;;6.05;3.88;;;;;;;;;;10382780;28;20544;-77
2022/05/07 20:12:12;;;;;;;6.90;4.03;;;;;;;;;;10386499;28;20037;-71
2022/05/07 20:17:13;;;;;;;9.48;3.90;;;;;;;;;;10390079;28;20048;-72
2022/05/07 20:22:13;;;;;;;5.10;3.43;;;;;;;;;;10401669;28;20021;-77
2022/05/07 20:27:14;;;;;;;10.35;3.70;;;;;;;;;;10370126;28;20190;-77
2022/05/07 20:32:14;;;;;;;7.73;3.87;;;;;;;;;;10399321;28;20038;-77
2022/05/07 20:37:15;;;;;;;8.68;4.50;;;;;;;;;;10398145;28;20025;-78
2022/05/07 20:42:15;;;;;;;10.45;3.88;;;;;;;;;;10365164;28;20185;-80
2022/05/07 20:47:16;;;;;;;11.93;4.93;;;;;;;;;;10449818;23;20482;-78
2022/05/07 20:52:16;;;;;;;7.95;3.17;;;;;;;;;;10462128;28;20090;-78
2022/05/07 20:57:16;;;;;;;9.73;3.13;;;;;;;;;;10463276;28;20051;-78
2022/05/07 21:02:16;;;;;;;4.05;2.95;;;;;;;;;;10467331;28;20029;-73
2022/05/07 21:07:18;;;;;;;4.72;3.00;;;;;;;;;;10467794;28;20044;-79
2022/05/07 21:12:18;;;;;;;8.00;2.50;;;;;;;;;;10470946;28;20033;-73
2022/05/07 21:17:18;;;;;;;8.47;2.87;;;;;;;;;;10465072;28;20032;-78
2022/05/07 21:22:19;;;;;;;4.82;2.88;;;;;;;;;;10464198;28;20142;-80
2022/05/07 21:27:19;;;;;;;7.18;2.83;;;;;;;;;;10455016;28;20487;-72
2022/05/07 21:32:20;;;;;;;2.72;2.35;;;;;;;;;;10443189;28;20043;-72
2022/05/07 21:37:20;;;;;;;5.30;2.53;;;;;;;;;;10450634;28;20029;-73
2022/05/07 21:42:22;;;;;;;8.20;3.13;;;;;;;;;;10452559;28;20029;-77
2022/05/07 21:47:22;;;;;;;3.63;2.53;;;;;;;;;;10451496;28;20049;-73
2022/05/07 21:52:24;;;;;;;4.18;2.85;;;;;;;;;;10451243;28;20059;-72
2022/05/07 21:57:25;;;;;;;3.20;2.28;;;;;;;;;;10452184;28;20025;-71
2022/05/07 22:02:25;;;;;;;5.85;2.42;;;;;;;;;;10450447;28;20018;-74
2022/05/07 22:07:25;;;;;;;3.72;3.00;;;;;;;;;;10450472;28;20140;-72
2022/05/07 22:12:26;;;;;;;6.82;3.30;;;;;;;;;;10449738;28;20025;-72
2022/05/07 22:17:26;;;;;;;4.90;2.53;;;;;;;;;;10450393;28;20109;-76
2022/05/07 22:22:27;;;;;;;6.30;2.22;;;;;;;;;;10450056;28;20407;-72
2022/05/07 22:27:27;;;;;;;5.32;2.28;;;;;;;;;;10449580;28;20029;-72
2022/05/07 22:32:27;;;;;;;6.80;2.33;;;;;;;;;;10449356;28;20021;-78
2022/05/07 22:37:28;;;;;;;4.05;2.50;;;;;;;;;;10449693;28;20025;-71
2022/05/07 22:42:28;;;;;;;7.82;2.80;;;;;;;;;;10449018;28;20602;-71
2022/05/07 22:47:28;;;;;;;4.93;1.90;;;;;;;;;;10447582;28;20056;-75
2022/05/07 22:52:28;;;;;;;3.53;2.25;;;;;;;;;;10448954;28;20029;-72
2022/05/07 22:57:29;;;;;;;4.32;2.53;;;;;;;;;;10448849;28;20052;-73
2022/05/07 23:02:29;;;;;;;6.13;3.33;;;;;;;;;;10448095;28;20027;-70
2022/05/07 23:07:29;;;;;;;6.40;3.15;;;;;;;;;;10448355;28;20063;-73
2022/05/07 23:12:30;;;;;;;7.28;2.30;;;;;;;;;;10447971;28;20504;-76
2022/05/07 23:17:30;;;;;;;4.77;3.10;;;;;;;;;;10449053;28;20029;-76
2022/05/07 23:22:30;;;;;;;4.10;2.40;;;;;;;;;;10447690;28;20036;-74
2022/05/07 23:27:30;;;;;;;4.32;2.20;;;;;;;;;;10447465;28;20025;-71
2022/05/07 23:32:31;;;;;;;3.65;2.72;;;;;;;;;;10447009;28;20029;-69
2022/05/07 23:37:31;;;;;;;7.93;2.60;;;;;;;;;;10446742;28;20093;-75
2022/05/07 23:42:31;;;;;;;4.70;3.17;;;;;;;;;;10448306;28;20028;-73
2022/05/07 23:47:32;;;;;;;8.52;2.65;;;;;;;;;;10480105;28;20582;-73
2022/05/07 23:52:32;;;;;;;5.95;2.72;;;;;;;;;;10471174;28;20525;-71
2022/05/07 23:57:32;;;;;;;7.10;2.47;;;;;;;;;;10470591;28;20020;-71
